sensor_id;sensor_type;location;lat;lon;timestamp;P1;durP1;ratioP1;P2;durP2;ratioP2
13967;SDS011;39536;52.198;9.920;2022-08-21T00:02:03;6.47;;;2.80;;
13967;SDS011;39536;52.198;9.920;2022-08-21T00:04:30;4.60;;;2.40;;
13967;SDS011;39536;52.198;9.920;2022-08-21T00:06:57;3.70;;;1.93;;
13967;SDS011;39536;52.198;9.920;2022-08-21T00:09:24;2.93;;;2.07;;
13967;SDS011;39536;52.198;9.920;2022-08-21T00:11:50;7.17;;;2.17;;
13967;SDS011;39536;52.198;9.920;2022-08-21T00:14:18;3.10;;;2.03;;
13967;SDS011;39536;52.198;9.920;2022-08-21T00:16:44;4.30;;;1.97;;
13967;SDS011;39536;52.198;9.920;2022-08-21T00:19:11;2.57;;;1.80;;
13967;SDS011;39536;52.198;9.920;2022-08-21T00:21:37;4.03;;;2.10;;
13967;SDS011;39536;52.198;9.920;2022-08-21T00:24:04;2.30;;;1.73;;
13967;SDS011;39536;52.198;9.920;2022-08-21T00:26:31;2.33;;;2.07;;
13967;SDS011;39536;52.198;9.920;2022-08-21T00:28:58;2.93;;;1.70;;
13967;SDS011;39536;52.198;9.920;2022-08-21T00:31:25;4.50;;;2.00;;
13967;SDS011;39536;52.198;9.920;2022-08-21T00:33:52;4.17;;;2.50;;
13967;SDS011;39536;52.198;9.920;2022-08-21T00:36:18;3.47;;;2.40;;
13967;SDS011;39536;52.198;9.920;2022-08-21T00:38:45;2.77;;;2.47;;
13967;SDS011;39536;52.198;9.920;2022-08-21T00:41:11;3.77;;;2.63;;
13967;SDS011;39536;52.198;9.920;2022-08-21T00:43:38;3.53;;;2.60;;
13967;SDS011;39536;52.198;9.920;2022-08-21T00:46:05;3.80;;;2.20;;
13967;SDS011;39536;52.198;9.920;2022-08-21T00:48:33;4.80;;;2.20;;
13967;SDS011;39536;52.198;9.920;2022-08-21T00:51:02;4.63;;;2.77;;
13967;SDS011;39536;52.198;9.920;2022-08-21T00:53:32;3.60;;;2.80;;
13967;SDS011;39536;52.198;9.920;2022-08-21T00:56:00;2.93;;;2.63;;
13967;SDS011;39536;52.198;9.920;2022-08-21T00:58:28;3.83;;;2.30;;
13967;SDS011;39536;52.198;9.920;2022-08-21T01:00:57;2.73;;;2.50;;
13967;SDS011;39536;52.198;9.920;2022-08-21T01:03:26;3.60;;;3.00;;
13967;SDS011;39536;52.198;9.920;2022-08-21T01:05:53;5.23;;;2.97;;
13967;SDS011;39536;52.198;9.920;2022-08-21T01:08:20;3.97;;;2.80;;
13967;SDS011;39536;52.198;9.920;2022-08-21T01:10:48;3.30;;;2.67;;
13967;SDS011;39536;52.198;9.920;2022-08-21T01:13:16;2.67;;;2.47;;
13967;SDS011;39536;52.198;9.920;2022-08-21T01:15:44;3.00;;;2.40;;
13967;SDS011;39536;52.198;9.920;2022-08-21T01:18:15;2.63;;;2.30;;
13967;SDS011;39536;52.198;9.920;2022-08-21T01:20:44;3.87;;;2.17;;
13967;SDS011;39536;52.198;9.920;2022-08-21T01:23:13;7.00;;;2.87;;
13967;SDS011;39536;52.198;9.920;2022-08-21T01:25:39;3.23;;;2.03;;
13967;SDS011;39536;52.198;9.920;2022-08-21T01:28:07;10.40;;;2.90;;
13967;SDS011;39536;52.198;9.920;2022-08-21T01:30:37;3.23;;;2.20;;
13967;SDS011;39536;52.198;9.920;2022-08-21T01:33:04;4.33;;;2.23;;
13967;SDS011;39536;52.198;9.920;2022-08-21T01:35:31;3.93;;;2.43;;
13967;SDS011;39536;52.198;9.920;2022-08-21T01:37:57;4.63;;;2.60;;
13967;SDS011;39536;52.198;9.920;2022-08-21T01:40:25;4.43;;;2.30;;
13967;SDS011;39536;52.198;9.920;2022-08-21T01:42:52;3.37;;;2.30;;
13967;SDS011;39536;52.198;9.920;2022-08-21T01:45:19;3.53;;;2.83;;
13967;SDS011;39536;52.198;9.920;2022-08-21T01:47:45;5.07;;;2.23;;
13967;SDS011;39536;52.198;9.920;2022-08-21T01:50:13;3.13;;;2.03;;
13967;SDS011;39536;52.198;9.920;2022-08-21T01:52:41;3.37;;;2.20;;
13967;SDS011;39536;52.198;9.920;2022-08-21T01:55:08;2.30;;;2.10;;
13967;SDS011;39536;52.198;9.920;2022-08-21T01:57:37;3.97;;;2.50;;
13967;SDS011;39536;52.198;9.920;2022-08-21T02:00:04;4.30;;;2.70;;
13967;SDS011;39536;52.198;9.920;2022-08-21T02:02:35;4.60;;;2.83;;
13967;SDS011;39536;52.198;9.920;2022-08-21T02:05:02;4.00;;;2.40;;
13967;SDS011;39536;52.198;9.920;2022-08-21T02:07:34;4.30;;;2.73;;
13967;SDS011;39536;52.198;9.920;2022-08-21T02:10:03;2.40;;;2.20;;
13967;SDS011;39536;52.198;9.920;2022-08-21T02:12:32;2.80;;;2.60;;
13967;SDS011;39536;52.198;9.920;2022-08-21T02:15:00;4.63;;;2.60;;
13967;SDS011;39536;52.198;9.920;2022-08-21T02:17:26;4.87;;;4.03;;
13967;SDS011;39536;52.198;9.920;2022-08-21T02:19:52;3.10;;;2.90;;
13967;SDS011;39536;52.198;9.920;2022-08-21T02:22:19;6.33;;;2.90;;
13967;SDS011;39536;52.198;9.920;2022-08-21T02:24:45;3.20;;;2.90;;
13967;SDS011;39536;52.198;9.920;2022-08-21T02:27:12;4.43;;;3.37;;
13967;SDS011;39536;52.198;9.920;2022-08-21T02:29:38;3.63;;;3.33;;
13967;SDS011;39536;52.198;9.920;2022-08-21T02:32:06;3.73;;;3.20;;
13967;SDS011;39536;52.198;9.920;2022-08-21T02:34:33;3.27;;;3.00;;
13967;SDS011;39536;52.198;9.920;2022-08-21T02:36:59;3.93;;;3.27;;
13967;SDS011;39536;52.198;9.920;2022-08-21T02:39:25;3.50;;;3.20;;
13967;SDS011;39536;52.198;9.920;2022-08-21T02:41:52;3.37;;;3.07;;
13967;SDS011;39536;52.198;9.920;2022-08-21T02:44:18;3.80;;;2.80;;
13967;SDS011;39536;52.198;9.920;2022-08-21T02:46:45;4.83;;;3.10;;
13967;SDS011;39536;52.198;9.920;2022-08-21T02:49:12;2.90;;;2.70;;
13967;SDS011;39536;52.198;9.920;2022-08-21T02:51:39;3.30;;;2.63;;
13967;SDS011;39536;52.198;9.920;2022-08-21T02:54:06;4.33;;;3.00;;
13967;SDS011;39536;52.198;9.920;2022-08-21T02:56:32;4.73;;;2.60;;
13967;SDS011;39536;52.198;9.920;2022-08-21T02:58:59;2.97;;;2.67;;
13967;SDS011;39536;52.198;9.920;2022-08-21T03:01:25;2.97;;;2.67;;
13967;SDS011;39536;52.198;9.920;2022-08-21T03:03:52;4.13;;;3.07;;
13967;SDS011;39536;52.198;9.920;2022-08-21T03:06:21;3.87;;;3.50;;
13967;SDS011;39536;52.198;9.920;2022-08-21T03:08:49;3.40;;;3.10;;
13967;SDS011;39536;52.198;9.920;2022-08-21T03:11:15;3.87;;;3.07;;
13967;SDS011;39536;52.198;9.920;2022-08-21T03:13:42;3.23;;;2.73;;
13967;SDS011;39536;52.198;9.920;2022-08-21T03:16:09;5.07;;;2.87;;
13967;SDS011;39536;52.198;9.920;2022-08-21T03:18:36;3.60;;;2.80;;
13967;SDS011;39536;52.198;9.920;2022-08-21T03:21:03;5.03;;;3.20;;
13967;SDS011;39536;52.198;9.920;2022-08-21T03:23:32;5.10;;;3.13;;
13967;SDS011;39536;52.198;9.920;2022-08-21T03:25:59;3.23;;;2.90;;
13967;SDS011;39536;52.198;9.920;2022-08-21T03:28:25;3.70;;;3.23;;
13967;SDS011;39536;52.198;9.920;2022-08-21T03:30:52;4.40;;;3.10;;
13967;SDS011;39536;52.198;9.920;2022-08-21T03:33:19;4.50;;;3.13;;
13967;SDS011;39536;52.198;9.920;2022-08-21T03:35:47;6.03;;;3.03;;
13967;SDS011;39536;52.198;9.920;2022-08-21T03:38:19;3.63;;;3.13;;
13967;SDS011;39536;52.198;9.920;2022-08-21T03:40:47;3.17;;;2.97;;
13967;SDS011;39536;52.198;9.920;2022-08-21T03:43:13;2.67;;;2.47;;
13967;SDS011;39536;52.198;9.920;2022-08-21T03:45:40;3.13;;;2.83;;
13967;SDS011;39536;52.198;9.920;2022-08-21T03:48:07;3.03;;;2.83;;
13967;SDS011;39536;52.198;9.920;2022-08-21T03:50:34;3.63;;;3.33;;
13967;SDS011;39536;52.198;9.920;2022-08-21T03:53:03;5.13;;;2.73;;
13967;SDS011;39536;52.198;9.920;2022-08-21T03:55:29;4.43;;;2.77;;
13967;SDS011;39536;52.198;9.920;2022-08-21T03:57:57;3.20;;;3.00;;
13967;SDS011;39536;52.198;9.920;2022-08-21T04:00:24;3.30;;;3.07;;
13967;SDS011;39536;52.198;9.920;2022-08-21T04:02:51;2.53;;;2.40;;
13967;SDS011;39536;52.198;9.920;2022-08-21T04:05:18;3.23;;;2.90;;
13967;SDS011;39536;52.198;9.920;2022-08-21T04:07:52;3.10;;;2.53;;
13967;SDS011;39536;52.198;9.920;2022-08-21T04:10:19;2.83;;;2.33;;
13967;SDS011;39536;52.198;9.920;2022-08-21T04:12:45;2.90;;;2.60;;
13967;SDS011;39536;52.198;9.920;2022-08-21T04:15:13;3.50;;;3.00;;
13967;SDS011;39536;52.198;9.920;2022-08-21T04:17:40;4.77;;;2.73;;
13967;SDS011;39536;52.198;9.920;2022-08-21T04:20:06;7.33;;;2.63;;
13967;SDS011;39536;52.198;9.920;2022-08-21T04:22:33;4.23;;;2.27;;
13967;SDS011;39536;52.198;9.920;2022-08-21T04:25:00;3.20;;;2.37;;
13967;SDS011;39536;52.198;9.920;2022-08-21T04:27:27;7.10;;;3.33;;
13967;SDS011;39536;52.198;9.920;2022-08-21T04:29:53;5.13;;;2.50;;
13967;SDS011;39536;52.198;9.920;2022-08-21T04:32:22;3.43;;;2.70;;
13967;SDS011;39536;52.198;9.920;2022-08-21T04:34:49;2.97;;;2.30;;
13967;SDS011;39536;52.198;9.920;2022-08-21T04:37:16;5.30;;;2.43;;
13967;SDS011;39536;52.198;9.920;2022-08-21T04:39:42;2.50;;;2.30;;
13967;SDS011;39536;52.198;9.920;2022-08-21T04:42:08;3.33;;;2.57;;
13967;SDS011;39536;52.198;9.920;2022-08-21T04:44:35;3.40;;;2.40;;
13967;SDS011;39536;52.198;9.920;2022-08-21T04:47:01;4.07;;;2.47;;
13967;SDS011;39536;52.198;9.920;2022-08-21T04:49:29;3.23;;;2.60;;
13967;SDS011;39536;52.198;9.920;2022-08-21T04:51:56;3.43;;;2.77;;
13967;SDS011;39536;52.198;9.920;2022-08-21T04:54:22;4.53;;;3.20;;
13967;SDS011;39536;52.198;9.920;2022-08-21T04:56:49;3.73;;;2.40;;
13967;SDS011;39536;52.198;9.920;2022-08-21T04:59:22;4.20;;;2.57;;
13967;SDS011;39536;52.198;9.920;2022-08-21T05:01:50;3.43;;;2.60;;
13967;SDS011;39536;52.198;9.920;2022-08-21T05:04:18;5.90;;;2.80;;
13967;SDS011;39536;52.198;9.920;2022-08-21T05:06:50;3.83;;;2.77;;
13967;SDS011;39536;52.198;9.920;2022-08-21T05:09:20;3.27;;;2.40;;
13967;SDS011;39536;52.198;9.920;2022-08-21T05:11:47;3.00;;;2.60;;
13967;SDS011;39536;52.198;9.920;2022-08-21T05:14:14;3.73;;;2.73;;
13967;SDS011;39536;52.198;9.920;2022-08-21T05:16:41;2.57;;;2.33;;
13967;SDS011;39536;52.198;9.920;2022-08-21T05:19:08;6.27;;;2.57;;
13967;SDS011;39536;52.198;9.920;2022-08-21T05:21:37;3.03;;;2.60;;
13967;SDS011;39536;52.198;9.920;2022-08-21T05:24:05;2.10;;;1.90;;
13967;SDS011;39536;52.198;9.920;2022-08-21T05:26:32;3.23;;;2.30;;
13967;SDS011;39536;52.198;9.920;2022-08-21T05:28:58;5.47;;;2.60;;
13967;SDS011;39536;52.198;9.920;2022-08-21T05:31:25;5.57;;;2.57;;
13967;SDS011;39536;52.198;9.920;2022-08-21T05:33:52;4.60;;;2.80;;
13967;SDS011;39536;52.198;9.920;2022-08-21T05:36:18;3.07;;;2.20;;
13967;SDS011;39536;52.198;9.920;2022-08-21T05:38:45;4.37;;;2.53;;
13967;SDS011;39536;52.198;9.920;2022-08-21T05:41:13;4.03;;;2.87;;
13967;SDS011;39536;52.198;9.920;2022-08-21T05:43:39;2.63;;;2.37;;
13967;SDS011;39536;52.198;9.920;2022-08-21T05:46:06;3.37;;;2.17;;
13967;SDS011;39536;52.198;9.920;2022-08-21T05:48:34;2.67;;;2.20;;
13967;SDS011;39536;52.198;9.920;2022-08-21T05:51:04;2.93;;;2.10;;
13967;SDS011;39536;52.198;9.920;2022-08-21T05:53:31;3.07;;;2.10;;
13967;SDS011;39536;52.198;9.920;2022-08-21T05:55:58;3.43;;;2.20;;
13967;SDS011;39536;52.198;9.920;2022-08-21T05:58:25;4.17;;;2.20;;
13967;SDS011;39536;52.198;9.920;2022-08-21T06:00:52;3.60;;;2.07;;
13967;SDS011;39536;52.198;9.920;2022-08-21T06:03:22;2.33;;;1.90;;
13967;SDS011;39536;52.198;9.920;2022-08-21T06:05:49;2.47;;;2.27;;
13967;SDS011;39536;52.198;9.920;2022-08-21T06:08:17;4.63;;;2.00;;
13967;SDS011;39536;52.198;9.920;2022-08-21T06:10:45;3.83;;;2.27;;
13967;SDS011;39536;52.198;9.920;2022-08-21T06:13:12;5.63;;;2.30;;
13967;SDS011;39536;52.198;9.920;2022-08-21T06:15:40;4.53;;;2.07;;
13967;SDS011;39536;52.198;9.920;2022-08-21T06:18:07;2.27;;;2.03;;
13967;SDS011;39536;52.198;9.920;2022-08-21T06:20:33;3.37;;;2.20;;
13967;SDS011;39536;52.198;9.920;2022-08-21T06:23:00;2.83;;;2.47;;
13967;SDS011;39536;52.198;9.920;2022-08-21T06:25:27;3.20;;;2.30;;
13967;SDS011;39536;52.198;9.920;2022-08-21T06:27:59;5.30;;;2.27;;
13967;SDS011;39536;52.198;9.920;2022-08-21T06:30:27;5.13;;;2.70;;
13967;SDS011;39536;52.198;9.920;2022-08-21T06:32:55;2.93;;;2.63;;
13967;SDS011;39536;52.198;9.920;2022-08-21T06:35:22;4.43;;;3.37;;
13967;SDS011;39536;52.198;9.920;2022-08-21T06:37:49;3.63;;;3.23;;
13967;SDS011;39536;52.198;9.920;2022-08-21T06:40:15;3.63;;;3.33;;
13967;SDS011;39536;52.198;9.920;2022-08-21T06:42:42;4.30;;;3.90;;
13967;SDS011;39536;52.198;9.920;2022-08-21T06:45:09;4.00;;;3.43;;
13967;SDS011;39536;52.198;9.920;2022-08-21T06:47:36;3.33;;;2.70;;
13967;SDS011;39536;52.198;9.920;2022-08-21T06:50:04;5.40;;;2.60;;
13967;SDS011;39536;52.198;9.920;2022-08-21T06:52:32;3.93;;;2.47;;
13967;SDS011;39536;52.198;9.920;2022-08-21T06:54:59;3.83;;;2.60;;
13967;SDS011;39536;52.198;9.920;2022-08-21T06:57:25;3.30;;;2.53;;
13967;SDS011;39536;52.198;9.920;2022-08-21T06:59:52;4.27;;;3.40;;
13967;SDS011;39536;52.198;9.920;2022-08-21T07:02:18;3.60;;;2.77;;
13967;SDS011;39536;52.198;9.920;2022-08-21T07:04:45;4.47;;;2.70;;
13967;SDS011;39536;52.198;9.920;2022-08-21T07:07:13;2.33;;;2.20;;
13967;SDS011;39536;52.198;9.920;2022-08-21T07:09:39;3.73;;;2.83;;
13967;SDS011;39536;52.198;9.920;2022-08-21T07:12:06;4.50;;;3.10;;
13967;SDS011;39536;52.198;9.920;2022-08-21T07:14:33;3.47;;;2.97;;
13967;SDS011;39536;52.198;9.920;2022-08-21T07:16:59;3.77;;;3.10;;
13967;SDS011;39536;52.198;9.920;2022-08-21T07:19:26;5.27;;;3.73;;
13967;SDS011;39536;52.198;9.920;2022-08-21T07:21:53;4.20;;;3.50;;
13967;SDS011;39536;52.198;9.920;2022-08-21T07:24:25;6.77;;;3.90;;
13967;SDS011;39536;52.198;9.920;2022-08-21T07:26:52;5.23;;;4.03;;
13967;SDS011;39536;52.198;9.920;2022-08-21T07:29:18;5.30;;;4.60;;
13967;SDS011;39536;52.198;9.920;2022-08-21T07:31:45;5.53;;;4.67;;
13967;SDS011;39536;52.198;9.920;2022-08-21T07:34:13;5.23;;;4.30;;
13967;SDS011;39536;52.198;9.920;2022-08-21T07:36:40;5.07;;;3.63;;
13967;SDS011;39536;52.198;9.920;2022-08-21T07:39:07;5.07;;;4.30;;
13967;SDS011;39536;52.198;9.920;2022-08-21T07:41:35;5.33;;;4.10;;
13967;SDS011;39536;52.198;9.920;2022-08-21T07:44:02;5.83;;;4.30;;
13967;SDS011;39536;52.198;9.920;2022-08-21T07:46:29;7.53;;;3.70;;
13967;SDS011;39536;52.198;9.920;2022-08-21T07:48:55;5.23;;;3.77;;
13967;SDS011;39536;52.198;9.920;2022-08-21T07:51:23;3.90;;;3.60;;
13967;SDS011;39536;52.198;9.920;2022-08-21T07:53:53;10.30;;;3.53;;
13967;SDS011;39536;52.198;9.920;2022-08-21T07:56:21;4.27;;;3.10;;
13967;SDS011;39536;52.198;9.920;2022-08-21T07:58:49;5.80;;;3.17;;
13967;SDS011;39536;52.198;9.920;2022-08-21T08:01:15;3.20;;;2.90;;
13967;SDS011;39536;52.198;9.920;2022-08-21T08:03:43;7.67;;;3.10;;
13967;SDS011;39536;52.198;9.920;2022-08-21T08:06:10;4.80;;;2.83;;
13967;SDS011;39536;52.198;9.920;2022-08-21T08:08:37;4.00;;;3.23;;
13967;SDS011;39536;52.198;9.920;2022-08-21T08:11:04;4.63;;;3.33;;
13967;SDS011;39536;52.198;9.920;2022-08-21T08:13:31;12.03;;;4.17;;
13967;SDS011;39536;52.198;9.920;2022-08-21T08:15:59;9.60;;;3.50;;
13967;SDS011;39536;52.198;9.920;2022-08-21T08:18:26;4.23;;;2.87;;
13967;SDS011;39536;52.198;9.920;2022-08-21T08:20:52;4.03;;;3.20;;
13967;SDS011;39536;52.198;9.920;2022-08-21T08:23:18;3.93;;;3.40;;
13967;SDS011;39536;52.198;9.920;2022-08-21T08:25:45;7.50;;;3.63;;
13967;SDS011;39536;52.198;9.920;2022-08-21T08:28:11;5.13;;;4.27;;
13967;SDS011;39536;52.198;9.920;2022-08-21T08:30:38;5.77;;;4.20;;
13967;SDS011;39536;52.198;9.920;2022-08-21T08:33:06;4.53;;;3.60;;
13967;SDS011;39536;52.198;9.920;2022-08-21T08:35:32;4.20;;;3.57;;
13967;SDS011;39536;52.198;9.920;2022-08-21T08:37:59;5.37;;;3.63;;
13967;SDS011;39536;52.198;9.920;2022-08-21T08:40:28;6.70;;;3.50;;
13967;SDS011;39536;52.198;9.920;2022-08-21T08:43:02;5.97;;;3.57;;
13967;SDS011;39536;52.198;9.920;2022-08-21T08:45:30;6.97;;;3.93;;
13967;SDS011;39536;52.198;9.920;2022-08-21T08:48:02;4.80;;;3.60;;
13967;SDS011;39536;52.198;9.920;2022-08-21T08:50:37;6.10;;;3.90;;
13967;SDS011;39536;52.198;9.920;2022-08-21T08:53:08;4.10;;;3.40;;
13967;SDS011;39536;52.198;9.920;2022-08-21T08:55:39;4.37;;;3.60;;
13967;SDS011;39536;52.198;9.920;2022-08-21T08:58:08;5.83;;;3.70;;
13967;SDS011;39536;52.198;9.920;2022-08-21T09:00:37;6.67;;;3.20;;
13967;SDS011;39536;52.198;9.920;2022-08-21T09:03:04;4.23;;;3.03;;
13967;SDS011;39536;52.198;9.920;2022-08-21T09:05:35;6.40;;;3.77;;
13967;SDS011;39536;52.198;9.920;2022-08-21T09:08:14;17.80;;;3.70;;
13967;SDS011;39536;52.198;9.920;2022-08-21T09:10:53;3.90;;;2.93;;
13967;SDS011;39536;52.198;9.920;2022-08-21T09:13:33;4.93;;;2.87;;
13967;SDS011;39536;52.198;9.920;2022-08-21T09:16:10;3.40;;;2.70;;
13967;SDS011;39536;52.198;9.920;2022-08-21T09:18:46;4.80;;;2.90;;
13967;SDS011;39536;52.198;9.920;2022-08-21T09:21:37;5.53;;;2.93;;
13967;SDS011;39536;52.198;9.920;2022-08-21T09:24:15;4.23;;;2.73;;
13967;SDS011;39536;52.198;9.920;2022-08-21T09:26:54;4.67;;;2.80;;
13967;SDS011;39536;52.198;9.920;2022-08-21T09:29:28;3.43;;;2.73;;
13967;SDS011;39536;52.198;9.920;2022-08-21T09:31:57;4.10;;;2.70;;
13967;SDS011;39536;52.198;9.920;2022-08-21T09:34:25;6.57;;;2.90;;
13967;SDS011;39536;52.198;9.920;2022-08-21T09:36:55;3.53;;;2.93;;
13967;SDS011;39536;52.198;9.920;2022-08-21T09:39:23;4.37;;;2.83;;
13967;SDS011;39536;52.198;9.920;2022-08-21T09:41:55;3.57;;;2.63;;
13967;SDS011;39536;52.198;9.920;2022-08-21T09:44:24;4.87;;;2.87;;
13967;SDS011;39536;52.198;9.920;2022-08-21T09:46:52;4.60;;;2.93;;
13967;SDS011;39536;52.198;9.920;2022-08-21T09:49:26;4.43;;;3.33;;
13967;SDS011;39536;52.198;9.920;2022-08-21T09:51:55;5.00;;;3.00;;
13967;SDS011;39536;52.198;9.920;2022-08-21T09:54:25;2.80;;;2.30;;
13967;SDS011;39536;52.198;9.920;2022-08-21T09:56:55;12.27;;;3.00;;
13967;SDS011;39536;52.198;9.920;2022-08-21T09:59:41;4.07;;;2.60;;
13967;SDS011;39536;52.198;9.920;2022-08-21T10:02:25;3.90;;;2.67;;
13967;SDS011;39536;52.198;9.920;2022-08-21T10:04:54;4.67;;;2.70;;
13967;SDS011;39536;52.198;9.920;2022-08-21T10:07:25;4.00;;;2.50;;
13967;SDS011;39536;52.198;9.920;2022-08-21T10:09:59;3.00;;;2.50;;
13967;SDS011;39536;52.198;9.920;2022-08-21T10:12:30;5.23;;;2.47;;
13967;SDS011;39536;52.198;9.920;2022-08-21T10:15:12;2.73;;;2.30;;
13967;SDS011;39536;52.198;9.920;2022-08-21T10:17:47;5.73;;;2.67;;
13967;SDS011;39536;52.198;9.920;2022-08-21T10:20:22;2.93;;;2.67;;
13967;SDS011;39536;52.198;9.920;2022-08-21T10:22:55;3.43;;;2.60;;
13967;SDS011;39536;52.198;9.920;2022-08-21T10:25:33;2.17;;;1.97;;
13967;SDS011;39536;52.198;9.920;2022-08-21T10:28:05;3.73;;;2.57;;
13967;SDS011;39536;52.198;9.920;2022-08-21T10:30:42;2.93;;;2.40;;
13967;SDS011;39536;52.198;9.920;2022-08-21T10:33:26;2.97;;;2.07;;
13967;SDS011;39536;52.198;9.920;2022-08-21T10:36:02;4.77;;;2.40;;
13967;SDS011;39536;52.198;9.920;2022-08-21T10:38:41;3.07;;;2.73;;
13967;SDS011;39536;52.198;9.920;2022-08-21T10:41:23;4.90;;;2.67;;
13967;SDS011;39536;52.198;9.920;2022-08-21T10:44:10;5.47;;;2.23;;
13967;SDS011;39536;52.198;9.920;2022-08-21T10:46:51;3.33;;;2.27;;
13967;SDS011;39536;52.198;9.920;2022-08-21T10:49:23;3.40;;;2.60;;
13967;SDS011;39536;52.198;9.920;2022-08-21T10:52:01;3.17;;;2.27;;
13967;SDS011;39536;52.198;9.920;2022-08-21T10:54:42;2.57;;;2.07;;
13967;SDS011;39536;52.198;9.920;2022-08-21T10:57:16;3.57;;;2.67;;
13967;SDS011;39536;52.198;9.920;2022-08-21T10:59:54;5.23;;;2.63;;
13967;SDS011;39536;52.198;9.920;2022-08-21T11:02:27;2.93;;;2.23;;
13967;SDS011;39536;52.198;9.920;2022-08-21T11:04:59;5.57;;;2.53;;
13967;SDS011;39536;52.198;9.920;2022-08-21T11:07:32;5.00;;;2.23;;
13967;SDS011;39536;52.198;9.920;2022-08-21T11:10:04;3.30;;;2.80;;
13967;SDS011;39536;52.198;9.920;2022-08-21T11:12:38;3.77;;;2.37;;
13967;SDS011;39536;52.198;9.920;2022-08-21T11:15:11;3.83;;;2.07;;
13967;SDS011;39536;52.198;9.920;2022-08-21T11:17:52;3.20;;;2.07;;
13967;SDS011;39536;52.198;9.920;2022-08-21T11:20:38;2.70;;;1.93;;
13967;SDS011;39536;52.198;9.920;2022-08-21T11:23:11;4.40;;;2.10;;
13967;SDS011;39536;52.198;9.920;2022-08-21T11:25:45;2.90;;;2.07;;
13967;SDS011;39536;52.198;9.920;2022-08-21T11:28:17;2.53;;;2.07;;
13967;SDS011;39536;52.198;9.920;2022-08-21T11:30:52;2.47;;;2.00;;
13967;SDS011;39536;52.198;9.920;2022-08-21T11:33:29;2.20;;;2.00;;
13967;SDS011;39536;52.198;9.920;2022-08-21T11:36:07;5.40;;;2.53;;
13967;SDS011;39536;52.198;9.920;2022-08-21T11:38:41;2.90;;;2.07;;
13967;SDS011;39536;52.198;9.920;2022-08-21T11:41:16;2.20;;;2.00;;
13967;SDS011;39536;52.198;9.920;2022-08-21T11:43:53;3.67;;;2.23;;
13967;SDS011;39536;52.198;9.920;2022-08-21T11:46:27;3.80;;;2.00;;
13967;SDS011;39536;52.198;9.920;2022-08-21T11:49:14;2.37;;;1.73;;
13967;SDS011;39536;52.198;9.920;2022-08-21T11:51:53;4.63;;;2.43;;
13967;SDS011;39536;52.198;9.920;2022-08-21T11:54:28;1.87;;;1.53;;
13967;SDS011;39536;52.198;9.920;2022-08-21T11:57:03;2.27;;;1.97;;
13967;SDS011;39536;52.198;9.920;2022-08-21T11:59:35;3.27;;;2.00;;
13967;SDS011;39536;52.198;9.920;2022-08-21T12:02:06;2.33;;;2.13;;
13967;SDS011;39536;52.198;9.920;2022-08-21T12:04:42;3.47;;;2.07;;
13967;SDS011;39536;52.198;9.920;2022-08-21T12:07:11;3.07;;;1.90;;
13967;SDS011;39536;52.198;9.920;2022-08-21T12:09:39;4.13;;;1.63;;
13967;SDS011;39536;52.198;9.920;2022-08-21T12:12:11;2.70;;;1.70;;
13967;SDS011;39536;52.198;9.920;2022-08-21T12:14:40;2.60;;;1.77;;
13967;SDS011;39536;52.198;9.920;2022-08-21T12:17:08;2.33;;;1.60;;
13967;SDS011;39536;52.198;9.920;2022-08-21T12:19:44;6.07;;;1.93;;
13967;SDS011;39536;52.198;9.920;2022-08-21T12:22:12;2.70;;;2.00;;
13967;SDS011;39536;52.198;9.920;2022-08-21T12:24:40;3.63;;;1.83;;
13967;SDS011;39536;52.198;9.920;2022-08-21T12:27:20;3.10;;;1.47;;
13967;SDS011;39536;52.198;9.920;2022-08-21T12:29:52;2.83;;;1.43;;
13967;SDS011;39536;52.198;9.920;2022-08-21T12:32:23;1.53;;;1.43;;
13967;SDS011;39536;52.198;9.920;2022-08-21T12:34:53;4.50;;;2.03;;
13967;SDS011;39536;52.198;9.920;2022-08-21T12:37:27;3.03;;;1.90;;
13967;SDS011;39536;52.198;9.920;2022-08-21T12:40:03;2.57;;;1.67;;
13967;SDS011;39536;52.198;9.920;2022-08-21T12:42:38;2.17;;;1.60;;
13967;SDS011;39536;52.198;9.920;2022-08-21T12:45:11;3.83;;;1.50;;
13967;SDS011;39536;52.198;9.920;2022-08-21T12:47:46;2.20;;;1.97;;
13967;SDS011;39536;52.198;9.920;2022-08-21T12:50:19;4.77;;;2.20;;
13967;SDS011;39536;52.198;9.920;2022-08-21T12:52:51;2.77;;;2.00;;
13967;SDS011;39536;52.198;9.920;2022-08-21T12:55:26;4.00;;;2.50;;
13967;SDS011;39536;52.198;9.920;2022-08-21T12:57:54;3.37;;;1.60;;
13967;SDS011;39536;52.198;9.920;2022-08-21T13:00:21;4.03;;;2.60;;
13967;SDS011;39536;52.198;9.920;2022-08-21T13:02:50;2.20;;;1.77;;
13967;SDS011;39536;52.198;9.920;2022-08-21T13:05:20;3.40;;;2.00;;
13967;SDS011;39536;52.198;9.920;2022-08-21T13:07:53;2.67;;;1.60;;
13967;SDS011;39536;52.198;9.920;2022-08-21T13:10:22;1.73;;;1.63;;
13967;SDS011;39536;52.198;9.920;2022-08-21T13:12:53;3.00;;;1.90;;
13967;SDS011;39536;52.198;9.920;2022-08-21T13:15:25;2.70;;;2.00;;
13967;SDS011;39536;52.198;9.920;2022-08-21T13:17:52;2.33;;;1.83;;
13967;SDS011;39536;52.198;9.920;2022-08-21T13:20:20;3.90;;;1.90;;
13967;SDS011;39536;52.198;9.920;2022-08-21T13:22:48;3.33;;;1.80;;
13967;SDS011;39536;52.198;9.920;2022-08-21T13:25:16;2.90;;;1.90;;
13967;SDS011;39536;52.198;9.920;2022-08-21T13:27:56;3.57;;;2.23;;
13967;SDS011;39536;52.198;9.920;2022-08-21T13:30:26;1.73;;;1.63;;
13967;SDS011;39536;52.198;9.920;2022-08-21T13:32:54;3.10;;;2.00;;
13967;SDS011;39536;52.198;9.920;2022-08-21T13:35:24;1.87;;;1.70;;
13967;SDS011;39536;52.198;9.920;2022-08-21T13:37:54;3.43;;;2.00;;
13967;SDS011;39536;52.198;9.920;2022-08-21T13:40:24;2.13;;;1.80;;
13967;SDS011;39536;52.198;9.920;2022-08-21T13:42:52;2.97;;;1.90;;
13967;SDS011;39536;52.198;9.920;2022-08-21T13:45:24;2.33;;;1.70;;
13967;SDS011;39536;52.198;9.920;2022-08-21T13:47:52;3.23;;;1.77;;
13967;SDS011;39536;52.198;9.920;2022-08-21T13:50:20;2.53;;;1.87;;
13967;SDS011;39536;52.198;9.920;2022-08-21T13:52:55;2.63;;;1.93;;
13967;SDS011;39536;52.198;9.920;2022-08-21T13:55:25;3.03;;;1.80;;
13967;SDS011;39536;52.198;9.920;2022-08-21T13:58:00;3.27;;;1.80;;
13967;SDS011;39536;52.198;9.920;2022-08-21T14:00:29;5.50;;;2.30;;
13967;SDS011;39536;52.198;9.920;2022-08-21T14:03:00;3.47;;;1.70;;
13967;SDS011;39536;52.198;9.920;2022-08-21T14:05:31;3.77;;;2.20;;
13967;SDS011;39536;52.198;9.920;2022-08-21T14:08:00;2.20;;;1.93;;
13967;SDS011;39536;52.198;9.920;2022-08-21T14:10:30;2.37;;;1.60;;
13967;SDS011;39536;52.198;9.920;2022-08-21T14:12:58;2.40;;;1.93;;
13967;SDS011;39536;52.198;9.920;2022-08-21T14:15:27;3.87;;;2.00;;
13967;SDS011;39536;52.198;9.920;2022-08-21T14:18:07;2.97;;;2.60;;
13967;SDS011;39536;52.198;9.920;2022-08-21T14:20:38;2.87;;;1.60;;
13967;SDS011;39536;52.198;9.920;2022-08-21T14:23:05;4.77;;;1.60;;
13967;SDS011;39536;52.198;9.920;2022-08-21T14:25:36;2.53;;;1.70;;
13967;SDS011;39536;52.198;9.920;2022-08-21T14:28:09;3.03;;;2.23;;
13967;SDS011;39536;52.198;9.920;2022-08-21T14:30:42;2.17;;;1.97;;
13967;SDS011;39536;52.198;9.920;2022-08-21T14:33:11;4.50;;;1.80;;
13967;SDS011;39536;52.198;9.920;2022-08-21T14:35:39;4.97;;;2.10;;
13967;SDS011;39536;52.198;9.920;2022-08-21T14:38:11;1.90;;;1.80;;
13967;SDS011;39536;52.198;9.920;2022-08-21T14:40:38;2.87;;;1.90;;
13967;SDS011;39536;52.198;9.920;2022-08-21T14:43:05;3.67;;;2.20;;
13967;SDS011;39536;52.198;9.920;2022-08-21T14:45:33;1.97;;;1.60;;
13967;SDS011;39536;52.198;9.920;2022-08-21T14:48:03;2.47;;;2.00;;
13967;SDS011;39536;52.198;9.920;2022-08-21T14:50:29;3.50;;;2.03;;
13967;SDS011;39536;52.198;9.920;2022-08-21T14:52:56;2.33;;;1.70;;
13967;SDS011;39536;52.198;9.920;2022-08-21T14:55:22;2.77;;;2.03;;
13967;SDS011;39536;52.198;9.920;2022-08-21T14:57:49;2.30;;;2.10;;
13967;SDS011;39536;52.198;9.920;2022-08-21T15:00:18;3.23;;;2.07;;
13967;SDS011;39536;52.198;9.920;2022-08-21T15:02:48;2.27;;;1.87;;